createdAt,value
2023-12-23T00:02:12.532Z,9.20
2023-12-23T00:04:39.308Z,9.20
2023-12-23T00:07:06.058Z,9.10
2023-12-23T00:09:32.728Z,9.10
2023-12-23T00:11:59.531Z,9.10
2023-12-23T00:14:26.761Z,9.10
2023-12-23T00:16:53.478Z,9.10
2023-12-23T00:19:21.318Z,9.10
2023-12-23T00:21:48.138Z,9.10
2023-12-23T00:24:14.757Z,9.00
2023-12-23T00:26:41.492Z,9.10
2023-12-23T00:29:08.255Z,9.10
2023-12-23T00:31:35.051Z,9.10
2023-12-23T00:34:01.758Z,9.10
2023-12-23T00:36:28.411Z,9.10
2023-12-23T00:38:55.102Z,9.10
2023-12-23T00:41:23.671Z,9.10
2023-12-23T00:43:50.362Z,9.10
2023-12-23T00:46:17.978Z,9.10
2023-12-23T00:48:44.793Z,9.10
2023-12-23T00:51:11.499Z,9.10
2023-12-23T00:53:38.649Z,9.00
2023-12-23T00:56:05.340Z,9.10
2023-12-23T00:58:32.029Z,9.10
2023-12-23T01:00:58.719Z,9.00
2023-12-23T01:03:25.552Z,9.00
2023-12-23T01:05:52.344Z,9.00
2023-12-23T01:08:19.240Z,9.00
2023-12-23T01:10:46.048Z,9.00
2023-12-23T01:13:12.788Z,9.00
2023-12-23T01:15:39.486Z,9.00
2023-12-23T01:18:06.226Z,9.00
2023-12-23T01:20:33.268Z,8.90
2023-12-23T01:22:59.967Z,8.90
2023-12-23T01:25:26.652Z,8.90
2023-12-23T01:27:53.548Z,9.00
2023-12-23T01:30:20.423Z,9.00
2023-12-23T01:32:47.320Z,8.90
2023-12-23T01:35:14.142Z,8.90
2023-12-23T01:37:40.909Z,9.00
2023-12-23T01:40:07.835Z,9.00
2023-12-23T01:42:34.487Z,9.00
2023-12-23T01:45:01.198Z,9.00
2023-12-23T01:47:27.914Z,9.00
2023-12-23T01:49:54.702Z,9.00
2023-12-23T01:52:21.462Z,9.00
2023-12-23T01:54:48.197Z,8.90
2023-12-23T01:57:14.840Z,9.00
2023-12-23T01:59:41.519Z,8.90
2023-12-23T02:02:08.321Z,9.00
2023-12-23T02:04:35.190Z,8.90
2023-12-23T02:07:01.945Z,8.90
2023-12-23T02:09:28.770Z,8.80
2023-12-23T02:11:55.443Z,8.80
2023-12-23T02:14:23.070Z,8.80
2023-12-23T02:16:49.888Z,8.80
2023-12-23T02:19:16.628Z,8.90
2023-12-23T02:21:43.356Z,8.90
2023-12-23T02:24:10.017Z,8.90
2023-12-23T02:26:36.758Z,8.90
2023-12-23T02:29:03.541Z,8.90
2023-12-23T02:31:30.215Z,8.90
2023-12-23T02:33:56.991Z,8.90
2023-12-23T02:36:23.716Z,8.90
2023-12-23T02:38:50.432Z,8.90
2023-12-23T02:41:17.305Z,8.90
2023-12-23T02:43:44.070Z,9.00
2023-12-23T02:46:10.868Z,8.90
2023-12-23T02:48:37.587Z,8.90
2023-12-23T02:51:04.365Z,8.90
2023-12-23T02:53:31.082Z,8.90
2023-12-23T02:55:57.812Z,8.90
2023-12-23T02:58:24.574Z,8.90
2023-12-23T03:00:51.250Z,8.90
2023-12-23T03:03:17.961Z,8.90
2023-12-23T03:05:44.720Z,8.90
2023-12-23T03:08:11.492Z,8.90
2023-12-23T03:10:38.242Z,8.90
2023-12-23T03:13:05.001Z,8.90
2023-12-23T03:15:31.716Z,8.80
2023-12-23T03:17:58.531Z,8.90
2023-12-23T03:20:27.945Z,8.90
2023-12-23T03:22:54.843Z,8.90
2023-12-23T03:25:21.596Z,8.90
2023-12-23T03:27:48.313Z,8.90
2023-12-23T03:30:15.031Z,8.90
2023-12-23T03:32:41.724Z,8.90
2023-12-23T03:35:08.484Z,8.90
2023-12-23T03:37:35.181Z,8.90
2023-12-23T03:40:01.868Z,9.00
2023-12-23T03:42:28.545Z,9.00
2023-12-23T03:44:55.177Z,9.00
2023-12-23T03:47:22.041Z,9.00
2023-12-23T03:49:48.726Z,9.00
2023-12-23T03:52:15.449Z,9.00
2023-12-23T03:54:42.129Z,9.10
2023-12-23T03:57:08.794Z,9.10
2023-12-23T03:59:35.434Z,9.10
2023-12-23T04:02:02.210Z,9.10
2023-12-23T04:04:28.983Z,9.10
2023-12-23T04:06:55.739Z,9.10
2023-12-23T04:09:23.606Z,9.10
2023-12-23T04:11:50.274Z,9.10
2023-12-23T04:14:17.025Z,9.10
2023-12-23T04:16:43.730Z,9.10
2023-12-23T04:19:10.647Z,9.20
2023-12-23T04:21:37.846Z,9.00
2023-12-23T04:24:04.505Z,9.10
2023-12-23T04:26:32.504Z,9.00
2023-12-23T04:28:59.626Z,9.00
2023-12-23T04:31:26.729Z,9.00
2023-12-23T04:33:53.721Z,9.00
2023-12-23T04:36:20.504Z,8.90
2023-12-23T04:38:47.885Z,9.00
2023-12-23T04:41:14.650Z,9.00
2023-12-23T04:43:41.474Z,8.90
2023-12-23T04:46:08.245Z,9.00
2023-12-23T04:48:35.031Z,8.90
2023-12-23T04:51:01.716Z,9.00
2023-12-23T04:53:29.152Z,8.90
2023-12-23T04:55:55.887Z,9.00
2023-12-23T04:58:22.645Z,9.00
2023-12-23T05:00:49.414Z,9.00
2023-12-23T05:03:16.446Z,9.00
2023-12-23T05:05:43.923Z,9.00
2023-12-23T05:08:10.762Z,9.00
2023-12-23T05:10:37.440Z,9.10
2023-12-23T05:13:04.389Z,9.20
2023-12-23T05:15:31.032Z,9.20
2023-12-23T05:17:57.757Z,9.10
2023-12-23T05:20:24.587Z,9.20
2023-12-23T05:22:51.647Z,9.20
2023-12-23T05:25:18.554Z,9.20
2023-12-23T05:27:45.279Z,9.20
2023-12-23T05:30:12.213Z,9.20
2023-12-23T05:32:39.031Z,9.20
2023-12-23T05:35:05.798Z,9.20
2023-12-23T05:37:32.541Z,9.20
2023-12-23T05:39:59.264Z,9.20
2023-12-23T05:42:26.925Z,9.20
2023-12-23T05:44:53.613Z,9.30
2023-12-23T05:47:20.486Z,9.20
2023-12-23T05:49:47.304Z,9.30
2023-12-23T05:52:13.981Z,9.40
2023-12-23T05:54:40.678Z,9.40
2023-12-23T05:57:07.899Z,9.40
2023-12-23T05:59:34.600Z,9.40
2023-12-23T06:02:01.632Z,9.40
2023-12-23T06:04:28.496Z,9.50
2023-12-23T06:06:55.223Z,9.50
2023-12-23T06:09:21.907Z,9.60
2023-12-23T06:11:48.816Z,9.70
2023-12-23T06:14:16.364Z,9.80
2023-12-23T06:16:43.195Z,9.80
2023-12-23T06:19:09.981Z,9.80
2023-12-23T06:21:36.666Z,9.80
2023-12-23T06:24:03.529Z,9.90
2023-12-23T06:26:30.209Z,9.90
2023-12-23T06:28:56.942Z,9.80
2023-12-23T06:31:23.772Z,9.90
2023-12-23T06:33:50.669Z,9.90
2023-12-23T06:36:17.521Z,9.80
2023-12-23T06:38:44.232Z,9.80
2023-12-23T06:41:10.976Z,9.70
2023-12-23T06:43:46.160Z,9.70
2023-12-23T06:46:18.769Z,9.70
2023-12-23T06:48:45.536Z,9.70
2023-12-23T06:51:12.377Z,9.70
2023-12-23T06:53:39.061Z,9.70
2023-12-23T06:56:05.772Z,9.70
2023-12-23T06:58:32.509Z,9.70
2023-12-23T07:00:59.194Z,9.70
2023-12-23T07:03:26.018Z,9.60
2023-12-23T07:05:52.852Z,9.60
2023-12-23T07:08:19.765Z,9.70
2023-12-23T07:10:46.498Z,9.60
2023-12-23T07:13:13.221Z,9.50
2023-12-23T07:15:39.938Z,9.60
2023-12-23T07:18:08.346Z,9.50
2023-12-23T07:20:35.192Z,9.50
2023-12-23T07:23:01.972Z,9.50
2023-12-23T07:25:28.727Z,9.50
2023-12-23T07:27:55.458Z,9.50
2023-12-23T07:30:22.254Z,9.50
2023-12-23T07:32:49.503Z,9.50
2023-12-23T07:35:19.178Z,9.50
2023-12-23T07:37:47.861Z,9.50
2023-12-23T07:40:14.534Z,9.60
2023-12-23T07:42:41.210Z,9.60
2023-12-23T07:45:08.017Z,9.70
2023-12-23T07:47:34.740Z,9.80
2023-12-23T07:50:01.472Z,9.80
2023-12-23T07:52:28.446Z,9.90
2023-12-23T07:54:55.246Z,10.00
2023-12-23T07:57:21.898Z,9.90
2023-12-23T07:59:50.178Z,9.90
2023-12-23T08:02:16.919Z,9.90
2023-12-23T08:04:43.801Z,9.80
2023-12-23T08:07:10.587Z,9.80
2023-12-23T08:09:37.350Z,9.70
2023-12-23T08:12:05.308Z,9.70
2023-12-23T08:14:32.029Z,9.60
2023-12-23T08:16:58.704Z,9.60
2023-12-23T08:19:25.536Z,9.60
2023-12-23T08:21:52.276Z,9.60
2023-12-23T08:24:18.969Z,9.60
2023-12-23T08:26:45.627Z,9.60
2023-12-23T08:29:12.352Z,9.60
2023-12-23T08:31:39.065Z,9.60
2023-12-23T08:34:06.288Z,9.60
2023-12-23T08:36:33.051Z,9.60
2023-12-23T08:38:59.745Z,9.60
2023-12-23T08:41:26.433Z,9.60
2023-12-23T08:43:53.163Z,9.70
2023-12-23T08:46:19.898Z,9.70
2023-12-23T08:48:46.870Z,9.70
2023-12-23T08:51:13.684Z,9.70
2023-12-23T08:53:40.333Z,9.80
2023-12-23T08:56:07.263Z,9.80
2023-12-23T08:58:34.031Z,9.80
2023-12-23T09:01:00.704Z,9.80
2023-12-23T09:03:29.082Z,9.80
2023-12-23T09:05:55.882Z,10.00
2023-12-23T09:08:22.687Z,10.10
2023-12-23T09:10:49.849Z,10.20
2023-12-23T09:13:16.506Z,10.10
2023-12-23T09:15:43.162Z,10.20
2023-12-23T09:18:10.015Z,10.20
2023-12-23T09:20:36.734Z,10.20
2023-12-23T09:23:03.650Z,10.20
2023-12-23T09:25:30.457Z,10.20
2023-12-23T09:27:57.148Z,10.30
2023-12-23T09:30:23.856Z,10.30
2023-12-23T09:32:51.185Z,10.30
2023-12-23T09:35:18.055Z,10.30
2023-12-23T09:37:46.263Z,10.40
2023-12-23T09:40:14.140Z,10.40
2023-12-23T09:42:40.832Z,10.40
2023-12-23T09:45:07.461Z,10.40
2023-12-23T09:47:34.399Z,10.40
2023-12-23T09:50:01.279Z,10.50
2023-12-23T09:52:28.044Z,10.50
2023-12-23T09:54:54.663Z,10.60
2023-12-23T09:57:21.331Z,10.60
2023-12-23T09:59:47.951Z,10.60
2023-12-23T10:02:14.644Z,10.60
2023-12-23T10:04:41.532Z,10.70
2023-12-23T10:07:08.151Z,10.70
2023-12-23T10:09:34.918Z,10.70
2023-12-23T10:12:01.607Z,10.70
2023-12-23T10:14:28.308Z,10.80
2023-12-23T10:16:55.051Z,10.80
2023-12-23T10:19:22.301Z,10.80
2023-12-23T10:21:49.065Z,10.80
2023-12-23T10:24:15.748Z,10.80
2023-12-23T10:26:42.409Z,10.80
2023-12-23T10:29:09.060Z,10.70
2023-12-23T10:31:35.682Z,10.70
2023-12-23T10:34:02.391Z,10.80
2023-12-23T10:36:29.101Z,10.80
2023-12-23T10:38:55.811Z,10.80
2023-12-23T10:41:22.570Z,10.90
2023-12-23T10:43:49.220Z,10.90
2023-12-23T10:46:16.554Z,11.00
2023-12-23T10:48:43.903Z,11.00
2023-12-23T10:51:10.691Z,11.10
2023-12-23T10:53:37.440Z,11.10
2023-12-23T10:56:04.340Z,11.20
2023-12-23T10:58:31.296Z,11.30
2023-12-23T11:00:58.057Z,11.20
2023-12-23T11:03:25.372Z,11.20
2023-12-23T11:05:52.123Z,11.30
2023-12-23T11:08:19.651Z,11.30
2023-12-23T11:10:46.436Z,11.30
2023-12-23T11:13:14.574Z,11.30
2023-12-23T11:15:41.361Z,11.40
2023-12-23T11:18:09.185Z,11.40
2023-12-23T11:20:37.074Z,11.40
2023-12-23T11:23:04.340Z,11.50
2023-12-23T11:25:31.987Z,11.50
2023-12-23T11:27:59.174Z,11.60
2023-12-23T11:30:26.154Z,11.60
2023-12-23T11:32:53.621Z,11.60
2023-12-23T11:35:21.619Z,11.60
2023-12-23T11:37:49.381Z,11.60
2023-12-23T11:40:17.394Z,11.60
2023-12-23T11:42:44.414Z,11.60
2023-12-23T11:45:11.519Z,11.60
2023-12-23T11:47:38.280Z,11.60
2023-12-23T11:50:05.044Z,11.60
2023-12-23T11:52:31.740Z,11.60
2023-12-23T11:54:58.443Z,11.60
2023-12-23T11:57:25.090Z,11.60
2023-12-23T11:59:51.840Z,11.60
2023-12-23T12:02:18.587Z,11.60
2023-12-23T12:04:46.423Z,11.60
2023-12-23T12:07:14.459Z,11.60
2023-12-23T12:09:41.097Z,11.70
2023-12-23T12:12:07.704Z,11.70
2023-12-23T12:14:34.464Z,11.80
2023-12-23T12:17:01.176Z,11.70
2023-12-23T12:19:27.860Z,11.80
2023-12-23T12:21:54.560Z,11.80
2023-12-23T12:24:21.713Z,11.90
2023-12-23T12:26:53.539Z,11.90
2023-12-23T12:29:20.838Z,11.90
2023-12-23T12:31:47.550Z,11.90
2023-12-23T12:34:14.354Z,11.90
2023-12-23T12:36:41.085Z,11.90
2023-12-23T12:39:07.764Z,12.00
2023-12-23T12:41:38.499Z,11.90
2023-12-23T12:44:05.667Z,11.90
2023-12-23T12:46:33.325Z,11.90
2023-12-23T12:49:00.181Z,11.80
2023-12-23T12:51:27.178Z,11.80
2023-12-23T12:53:53.803Z,11.90
2023-12-23T12:56:23.825Z,11.80
2023-12-23T12:58:50.674Z,11.80
2023-12-23T13:01:17.439Z,11.80
2023-12-23T13:03:44.315Z,11.80
2023-12-23T13:06:11.120Z,11.70
2023-12-23T13:08:37.765Z,11.70
2023-12-23T13:11:04.483Z,11.70
2023-12-23T13:13:31.190Z,11.70
2023-12-23T13:15:57.842Z,11.80
2023-12-23T13:18:24.619Z,11.80
2023-12-23T13:20:51.414Z,11.80
2023-12-23T13:23:18.171Z,11.70
2023-12-23T13:25:44.860Z,11.70
2023-12-23T13:28:11.602Z,11.70
2023-12-23T13:30:38.300Z,11.80
2023-12-23T13:33:05.042Z,11.70
2023-12-23T13:35:31.796Z,11.60
2023-12-23T13:37:58.488Z,11.60
2023-12-23T13:40:25.522Z,11.60
2023-12-23T13:42:52.505Z,11.60
2023-12-23T13:45:19.270Z,11.60
2023-12-23T13:47:46.151Z,11.60
2023-12-23T13:50:13.064Z,11.60
2023-12-23T13:52:40.915Z,11.60
2023-12-23T13:55:07.600Z,11.60
2023-12-23T13:57:34.277Z,11.60
2023-12-23T14:00:00.964Z,11.60
2023-12-23T14:02:27.728Z,11.70
2023-12-23T14:04:55.138Z,11.70
2023-12-23T14:07:21.859Z,11.60
2023-12-23T14:09:48.497Z,11.60
2023-12-23T14:12:15.210Z,11.60
2023-12-23T14:14:41.929Z,11.60
2023-12-23T14:17:08.667Z,11.70
2023-12-23T14:19:35.464Z,11.70
2023-12-23T14:22:02.138Z,11.60
2023-12-23T14:24:28.798Z,11.70
2023-12-23T14:26:55.644Z,11.60
2023-12-23T14:29:22.360Z,11.60
2023-12-23T14:31:49.895Z,11.60
2023-12-23T14:34:16.675Z,11.60
2023-12-23T14:36:49.632Z,11.60
2023-12-23T14:39:16.390Z,11.60
2023-12-23T14:41:43.074Z,11.50
2023-12-23T14:44:12.089Z,11.60
2023-12-23T14:46:39.004Z,11.50
2023-12-23T14:49:06.330Z,11.50
2023-12-23T14:51:32.986Z,11.50
2023-12-23T14:53:59.657Z,11.50
2023-12-23T14:56:26.356Z,11.60
2023-12-23T14:58:53.105Z,11.50
2023-12-23T15:01:19.793Z,11.50
2023-12-23T15:03:46.835Z,11.50
2023-12-23T15:06:13.623Z,11.60
2023-12-23T15:08:40.324Z,11.60
2023-12-23T15:11:06.988Z,11.50
2023-12-23T15:13:38.633Z,11.50
2023-12-23T15:16:06.587Z,11.50
2023-12-23T15:18:33.348Z,11.50
2023-12-23T15:21:00.047Z,11.40
2023-12-23T15:23:26.838Z,11.40
2023-12-23T15:25:53.631Z,11.40
2023-12-23T15:28:20.339Z,11.40
2023-12-23T15:30:48.245Z,11.30
2023-12-23T15:33:15.721Z,11.30
2023-12-23T15:35:42.645Z,11.40
2023-12-23T15:38:09.423Z,11.30
2023-12-23T15:40:36.099Z,11.30
2023-12-23T15:43:04.528Z,11.30
2023-12-23T15:45:31.200Z,11.20
2023-12-23T15:47:57.930Z,11.30
2023-12-23T15:50:24.624Z,11.20
2023-12-23T15:52:51.585Z,11.20
2023-12-23T15:55:18.369Z,11.20
2023-12-23T15:57:45.004Z,11.10
2023-12-23T16:00:11.805Z,11.10
2023-12-23T16:02:38.850Z,11.10
2023-12-23T16:05:05.697Z,11.10
2023-12-23T16:07:32.632Z,11.10
2023-12-23T16:09:59.682Z,11.00
2023-12-23T16:12:26.858Z,11.00
2023-12-23T16:14:53.512Z,11.00
2023-12-23T16:17:20.245Z,11.00
2023-12-23T16:19:47.047Z,11.00
2023-12-23T16:22:13.737Z,11.00
2023-12-23T16:24:41.060Z,10.90
2023-12-23T16:27:07.759Z,10.90
2023-12-23T16:29:34.509Z,11.00
2023-12-23T16:32:04.091Z,10.90
2023-12-23T16:34:31.370Z,10.90
2023-12-23T16:36:58.003Z,10.90
2023-12-23T16:39:24.746Z,10.90
2023-12-23T16:41:51.459Z,10.80
2023-12-23T16:44:18.240Z,10.90
2023-12-23T16:46:44.924Z,10.90
2023-12-23T16:49:11.633Z,10.90
2023-12-23T16:51:38.344Z,10.90
2023-12-23T16:54:05.404Z,10.90
2023-12-23T16:56:32.167Z,10.80
2023-12-23T16:58:58.958Z,10.90
2023-12-23T17:01:25.768Z,10.90
2023-12-23T17:03:52.507Z,10.80
2023-12-23T17:06:19.261Z,10.80
2023-12-23T17:08:46.001Z,10.80
2023-12-23T17:11:12.811Z,10.80
2023-12-23T17:13:39.462Z,10.80
2023-12-23T17:16:06.181Z,10.80
2023-12-23T17:18:33.422Z,10.80
2023-12-23T17:21:00.113Z,10.80
2023-12-23T17:23:28.960Z,10.70
2023-12-23T17:25:55.791Z,10.80
2023-12-23T17:28:22.467Z,10.80
2023-12-23T17:30:49.316Z,10.80
2023-12-23T17:33:16.090Z,10.80
2023-12-23T17:35:42.883Z,10.90
2023-12-23T17:38:12.752Z,10.80
2023-12-23T17:40:39.499Z,10.90
2023-12-23T17:43:10.359Z,10.90
2023-12-23T17:45:37.141Z,10.90
2023-12-23T17:48:03.960Z,10.90
2023-12-23T17:50:30.903Z,10.90
2023-12-23T17:52:57.705Z,10.90
2023-12-23T17:55:24.603Z,10.90
2023-12-23T17:57:51.283Z,10.90
2023-12-23T18:00:25.492Z,10.90
2023-12-23T18:02:52.464Z,10.90
2023-12-23T18:05:20.000Z,11.00
2023-12-23T18:07:46.734Z,11.00
2023-12-23T18:10:13.440Z,11.00
2023-12-23T18:12:40.196Z,11.00
2023-12-23T18:15:06.881Z,10.90
2023-12-23T18:17:33.670Z,10.90
2023-12-23T18:20:00.515Z,11.00
2023-12-23T18:22:27.250Z,11.00
2023-12-23T18:24:54.297Z,11.00
2023-12-23T18:27:20.985Z,11.00
2023-12-23T18:29:47.610Z,10.90
2023-12-23T18:32:14.472Z,11.00
2023-12-23T18:34:41.314Z,11.00
2023-12-23T18:37:08.641Z,11.00
2023-12-23T18:39:36.160Z,11.00
2023-12-23T18:42:02.887Z,11.00
2023-12-23T18:44:29.577Z,11.00
2023-12-23T18:46:56.291Z,11.00
2023-12-23T18:49:23.022Z,10.90
2023-12-23T18:51:49.728Z,11.00
2023-12-23T18:54:16.931Z,11.00
2023-12-23T18:56:43.583Z,11.00
2023-12-23T18:59:10.761Z,11.00
2023-12-23T19:01:37.470Z,11.00
2023-12-23T19:04:04.932Z,11.00
2023-12-23T19:06:33.909Z,11.00
2023-12-23T19:09:00.552Z,11.00
2023-12-23T19:11:27.238Z,11.00
2023-12-23T19:13:53.931Z,11.00
2023-12-23T19:16:20.589Z,11.00
2023-12-23T19:18:47.986Z,11.00
2023-12-23T19:21:14.698Z,11.00
2023-12-23T19:23:41.407Z,11.00
2023-12-23T19:26:08.171Z,11.10
2023-12-23T19:28:37.185Z,11.10
2023-12-23T19:31:03.998Z,11.10
2023-12-23T19:33:30.768Z,11.10
2023-12-23T19:35:57.530Z,11.10
2023-12-23T19:38:24.234Z,11.10
2023-12-23T19:40:51.571Z,11.00
2023-12-23T19:43:19.874Z,11.00
2023-12-23T19:45:46.681Z,11.00
2023-12-23T19:48:14.161Z,11.00
2023-12-23T19:50:41.280Z,11.00
2023-12-23T19:53:08.056Z,11.00
2023-12-23T19:55:34.799Z,11.10
2023-12-23T19:58:01.437Z,11.10
2023-12-23T20:00:28.056Z,11.10
2023-12-23T20:02:55.767Z,11.10
2023-12-23T20:05:22.632Z,11.10
2023-12-23T20:07:49.409Z,11.10
2023-12-23T20:10:16.336Z,11.10
2023-12-23T20:12:43.227Z,11.10
2023-12-23T20:15:10.153Z,11.00
2023-12-23T20:17:37.135Z,11.00
2023-12-23T20:20:04.771Z,11.10
2023-12-23T20:22:31.577Z,11.10
2023-12-23T20:24:58.228Z,11.10
2023-12-23T20:27:25.031Z,11.10
2023-12-23T20:29:51.717Z,11.20
2023-12-23T20:32:18.459Z,11.10
2023-12-23T20:34:45.144Z,11.10
2023-12-23T20:37:13.205Z,11.00
2023-12-23T20:39:39.936Z,11.00
2023-12-23T20:42:06.627Z,11.10
2023-12-23T20:44:33.576Z,11.10
2023-12-23T20:47:00.343Z,11.10
2023-12-23T20:49:27.209Z,11.10
2023-12-23T20:51:53.900Z,11.10
2023-12-23T20:54:21.796Z,11.10
2023-12-23T20:56:48.496Z,11.20
2023-12-23T20:59:15.184Z,11.10
2023-12-23T21:01:41.975Z,11.10
2023-12-23T21:04:08.833Z,11.10
2023-12-23T21:06:35.699Z,11.10
2023-12-23T21:09:02.422Z,11.00
2023-12-23T21:11:29.122Z,11.10
2023-12-23T21:13:55.870Z,11.00
2023-12-23T21:16:22.545Z,11.10
2023-12-23T21:18:49.481Z,11.00
2023-12-23T21:21:16.231Z,11.10
2023-12-23T21:23:42.903Z,11.00
2023-12-23T21:26:09.596Z,11.00
2023-12-23T21:28:36.343Z,11.00
2023-12-23T21:31:04.163Z,11.00
2023-12-23T21:33:30.868Z,11.00
2023-12-23T21:35:57.576Z,11.00
2023-12-23T21:38:24.420Z,11.00
2023-12-23T21:40:51.101Z,11.00
2023-12-23T21:43:17.809Z,11.00
2023-12-23T21:45:44.749Z,10.90
2023-12-23T21:48:11.474Z,10.90
2023-12-23T21:50:38.521Z,10.90
2023-12-23T21:53:05.429Z,10.90
2023-12-23T21:55:32.219Z,11.00
2023-12-23T21:57:58.942Z,10.90
2023-12-23T22:00:25.650Z,10.80
2023-12-23T22:02:52.663Z,10.80
2023-12-23T22:05:19.644Z,10.80
2023-12-23T22:07:46.360Z,10.80
2023-12-23T22:10:14.011Z,10.90
2023-12-23T22:12:40.881Z,10.90
2023-12-23T22:15:08.127Z,10.90
2023-12-23T22:17:34.914Z,10.90
2023-12-23T22:20:01.636Z,10.90
2023-12-23T22:22:28.425Z,11.00
2023-12-23T22:24:55.119Z,10.90
2023-12-23T22:27:22.064Z,11.00
2023-12-23T22:29:48.714Z,10.90
2023-12-23T22:32:15.364Z,10.90
2023-12-23T22:34:42.056Z,11.00
2023-12-23T22:37:08.731Z,11.00
2023-12-23T22:39:35.358Z,11.00
2023-12-23T22:42:02.070Z,11.10
2023-12-23T22:44:28.788Z,11.00
2023-12-23T22:46:55.595Z,11.10
2023-12-23T22:49:22.270Z,11.10
2023-12-23T22:51:49.680Z,11.00
2023-12-23T22:54:16.317Z,11.00
2023-12-23T22:56:42.944Z,11.10
2023-12-23T22:59:09.618Z,11.00
2023-12-23T23:01:36.422Z,11.10
2023-12-23T23:04:03.088Z,11.00
2023-12-23T23:06:31.830Z,11.10
2023-12-23T23:08:58.503Z,11.10
2023-12-23T23:11:25.314Z,11.10
2023-12-23T23:13:52.186Z,11.10
2023-12-23T23:16:18.930Z,11.20
2023-12-23T23:18:45.959Z,11.20
2023-12-23T23:21:12.726Z,11.20
2023-12-23T23:23:39.454Z,11.20
2023-12-23T23:26:06.711Z,11.20
2023-12-23T23:28:34.190Z,11.30
2023-12-23T23:31:00.910Z,11.30
2023-12-23T23:33:27.678Z,11.30
2023-12-23T23:35:54.548Z,11.30
2023-12-23T23:38:21.249Z,11.40
2023-12-23T23:40:50.032Z,11.40
2023-12-23T23:43:16.678Z,11.40
2023-12-23T23:45:43.310Z,11.50
2023-12-23T23:48:10.008Z,11.50
2023-12-23T23:50:36.727Z,11.50
2023-12-23T23:53:03.504Z,11.50
2023-12-23T23:55:30.212Z,11.50
2023-12-23T23:57:58.344Z,11.60
